KLWV/LWV METAR and TAF weather

Enter ICAO airport designator
Station Type Date Time Source
KLWV METAR 2022/10/01 08:53 UTC NOAA

KLWV 010853Z AUTO 02007KT 10SM CLR 08/07 A3008 RMK AO2 SLP184 T00830067 53002


Station Type Date Time Source
KLWV Decoded METAR 2022/10/01 08:53 UTC NOAA

LAWRENCEVILLE-VINCENNES INTERNATIONAL , IL, United States (KLWV) 38-46N 87-36W 131M
Oct 01, 2022 - 04:53 AM EDT / 2022.10.01 0853 UTC
Wind: from the NNE (020 degrees) at 8 MPH (7 KT):0
Visibility: 10 mile(s):0
Sky conditions: clear
Temperature: 46.9 F (8.3 C)
Dew Point: 44.1 F (6.7 C)
Relative Humidity: 89%
Pressure (altimeter): 30.08 in. Hg (1018 hPa)
Pressure tendency: 0.01 inches (0.2 hPa) higher than three hours ago
ob: KLWV 010853Z AUTO 02007KT 10SM CLR 08/07 A3008 RMK AO2 SLP184 T00830067 53002
cycle: 9

Station Type Date Time Source
KLWV TAF UTC NOAA

Error!

Example: see airport list